createdAt,value
2022-11-24T00:01:13.167Z,100.00
2022-11-24T00:03:40.367Z,100.00
2022-11-24T00:06:15.349Z,100.00
2022-11-24T00:08:44.632Z,100.00
2022-11-24T00:11:15.408Z,100.00
2022-11-24T00:13:43.194Z,100.00
2022-11-24T00:16:11.861Z,100.00
2022-11-24T00:18:40.369Z,100.00
2022-11-24T00:21:07.663Z,100.00
2022-11-24T00:23:35.637Z,100.00
2022-11-24T00:26:10.320Z,100.00
2022-11-24T00:28:38.328Z,100.00
2022-11-24T00:31:17.161Z,100.00
2022-11-24T00:33:45.426Z,100.00
2022-11-24T00:36:12.559Z,100.00
2022-11-24T00:38:39.649Z,100.00
2022-11-24T00:41:07.032Z,100.00
2022-11-24T00:43:34.273Z,100.00
2022-11-24T00:46:01.375Z,100.00
2022-11-24T00:48:28.850Z,100.00
2022-11-24T00:51:10.269Z,100.00
2022-11-24T00:53:37.835Z,100.00
2022-11-24T00:56:05.888Z,100.00
2022-11-24T00:58:33.846Z,100.00
2022-11-24T01:01:06.586Z,100.00
2022-11-24T01:03:34.424Z,100.00
2022-11-24T01:06:10.385Z,100.00
2022-11-24T01:08:38.548Z,100.00
2022-11-24T01:11:25.545Z,100.00
2022-11-24T01:13:55.709Z,100.00
2022-11-24T01:16:24.419Z,100.00
2022-11-24T01:18:52.277Z,100.00
2022-11-24T01:21:19.527Z,100.00
2022-11-24T01:23:46.864Z,100.00
2022-11-24T01:26:19.860Z,100.00
2022-11-24T01:28:47.938Z,100.00
2022-11-24T01:31:16.346Z,100.00
2022-11-24T01:33:43.544Z,100.00
2022-11-24T01:36:10.583Z,100.00
2022-11-24T01:38:37.708Z,100.00
2022-11-24T01:41:06.234Z,100.00
2022-11-24T01:43:34.212Z,100.00
2022-11-24T01:46:16.446Z,100.00
2022-11-24T01:48:49.395Z,100.00
2022-11-24T01:51:27.032Z,100.00
2022-11-24T01:53:59.666Z,100.00
2022-11-24T01:56:27.804Z,100.00
2022-11-24T01:58:59.293Z,100.00
2022-11-24T02:01:27.961Z,100.00
2022-11-24T02:03:56.494Z,100.00
2022-11-24T02:06:27.567Z,100.00
2022-11-24T02:08:59.633Z,100.00
2022-11-24T02:11:30.979Z,100.00
2022-11-24T02:13:58.185Z,100.00
2022-11-24T02:16:25.860Z,100.00
2022-11-24T02:18:53.282Z,100.00
2022-11-24T02:21:20.322Z,100.00
2022-11-24T02:23:47.307Z,100.00
2022-11-24T02:26:41.609Z,100.00
2022-11-24T02:29:10.552Z,100.00
2022-11-24T02:31:39.051Z,100.00
2022-11-24T02:34:06.166Z,100.00
2022-11-24T02:36:33.150Z,100.00
2022-11-24T02:39:00.144Z,100.00
2022-11-24T02:41:29.006Z,100.00
2022-11-24T02:43:58.720Z,100.00
2022-11-24T02:46:26.197Z,100.00
2022-11-24T02:48:53.609Z,100.00
2022-11-24T02:51:20.644Z,100.00
2022-11-24T02:53:47.654Z,100.00
2022-11-24T02:56:14.667Z,100.00
2022-11-24T02:58:41.658Z,100.00
2022-11-24T03:01:08.988Z,100.00
2022-11-24T03:03:36.164Z,100.00
2022-11-24T03:06:03.181Z,100.00
2022-11-24T03:08:30.440Z,100.00
2022-11-24T03:10:57.440Z,100.00
2022-11-24T03:13:24.530Z,100.00
2022-11-24T03:15:51.558Z,100.00
2022-11-24T03:18:18.853Z,100.00
2022-11-24T03:20:45.970Z,100.00
2022-11-24T03:23:12.963Z,100.00
2022-11-24T03:25:40.064Z,100.00
2022-11-24T03:28:07.248Z,100.00
2022-11-24T03:30:34.311Z,100.00
2022-11-24T03:33:01.239Z,100.00
2022-11-24T03:35:28.311Z,100.00
2022-11-24T03:37:55.330Z,100.00
2022-11-24T03:40:22.451Z,100.00
2022-11-24T03:42:49.525Z,100.00
2022-11-24T03:46:12.466Z,100.00
2022-11-24T03:48:03.734Z,100.00
2022-11-24T03:50:30.814Z,100.00
2022-11-24T03:52:58.082Z,100.00
2022-11-24T03:55:25.130Z,100.00
2022-11-24T03:57:52.140Z,100.00
2022-11-24T04:00:19.279Z,100.00
2022-11-24T04:02:46.396Z,100.00
2022-11-24T04:05:13.484Z,100.00
2022-11-24T04:07:40.764Z,100.00
2022-11-24T04:10:08.134Z,100.00
2022-11-24T04:12:44.148Z,100.00
2022-11-24T04:15:13.586Z,100.00
2022-11-24T04:17:40.914Z,100.00
2022-11-24T04:20:09.371Z,100.00
2022-11-24T04:22:36.656Z,100.00
2022-11-24T04:25:04.599Z,100.00
2022-11-24T04:27:33.830Z,100.00
2022-11-24T04:30:01.037Z,100.00
2022-11-24T04:32:28.653Z,100.00
2022-11-24T04:34:55.810Z,100.00
2022-11-24T04:37:23.085Z,100.00
2022-11-24T04:39:50.386Z,100.00
2022-11-24T04:42:17.453Z,100.00
2022-11-24T04:44:44.556Z,100.00
2022-11-24T04:47:21.310Z,100.00
2022-11-24T04:49:51.183Z,100.00
2022-11-24T04:52:20.160Z,100.00
2022-11-24T04:54:48.001Z,100.00
2022-11-24T04:57:25.553Z,100.00
2022-11-24T04:59:52.982Z,100.00
2022-11-24T05:02:20.661Z,100.00
2022-11-24T05:04:48.579Z,100.00
2022-11-24T05:07:19.070Z,100.00
2022-11-24T05:10:06.013Z,100.00
2022-11-24T05:12:33.233Z,100.00
2022-11-24T05:15:04.647Z,100.00
2022-11-24T05:17:34.420Z,100.00
2022-11-24T05:20:02.074Z,100.00
2022-11-24T05:22:29.960Z,100.00
2022-11-24T05:24:57.103Z,100.00
2022-11-24T05:27:24.136Z,100.00
2022-11-24T05:29:51.211Z,100.00
2022-11-24T05:32:18.283Z,100.00
2022-11-24T05:34:45.433Z,100.00
2022-11-24T05:40:15.406Z,100.00
2022-11-24T05:46:17.022Z,100.00
2022-11-24T05:48:45.317Z,100.00
2022-11-24T05:51:12.899Z,100.00
2022-11-24T05:53:40.786Z,100.00
2022-11-24T05:56:08.749Z,100.00
2022-11-24T05:58:36.557Z,100.00
2022-11-24T06:01:07.491Z,100.00
2022-11-24T06:38:53.162Z,100.00
2022-11-24T06:41:21.061Z,100.00
2022-11-24T06:43:48.881Z,100.00
2022-11-24T06:49:12.314Z,100.00
2022-11-24T06:51:39.935Z,100.00
2022-11-24T06:54:08.184Z,100.00
2022-11-24T06:56:35.533Z,100.00
2022-11-24T07:01:57.708Z,100.00
2022-11-24T07:04:24.911Z,100.00
2022-11-24T07:06:51.936Z,100.00
2022-11-24T07:09:18.990Z,100.00
2022-11-24T07:11:46.147Z,100.00
2022-11-24T07:14:13.304Z,100.00
2022-11-24T07:16:40.842Z,100.00
2022-11-24T07:19:10.635Z,100.00
2022-11-24T07:21:37.664Z,100.00
2022-11-24T07:24:05.144Z,100.00
2022-11-24T07:26:37.192Z,100.00
2022-11-24T07:29:05.428Z,100.00
2022-11-24T07:31:32.665Z,100.00
2022-11-24T07:33:59.725Z,100.00
2022-11-24T07:36:26.848Z,100.00
2022-11-24T07:38:53.993Z,100.00
2022-11-24T07:41:21.128Z,100.00
2022-11-24T07:43:49.120Z,100.00
2022-11-24T07:46:19.367Z,100.00
2022-11-24T07:48:47.005Z,100.00
2022-11-24T07:51:14.033Z,100.00
2022-11-24T07:53:41.149Z,100.00
2022-11-24T07:56:09.764Z,100.00
2022-11-24T07:58:37.607Z,100.00
2022-11-24T08:01:16.401Z,100.00
2022-11-24T08:03:45.004Z,100.00
2022-11-24T08:06:35.885Z,100.00
2022-11-24T08:09:00.030Z,100.00
2022-11-24T08:11:27.922Z,100.00
2022-11-24T08:13:54.869Z,100.00
2022-11-24T08:16:21.827Z,100.00
2022-11-24T08:18:56.242Z,100.00
2022-11-24T08:21:24.429Z,100.00
2022-11-24T08:23:56.441Z,100.00
2022-11-24T08:26:26.499Z,100.00
2022-11-24T08:28:57.284Z,100.00
2022-11-24T08:31:27.785Z,100.00
2022-11-24T08:33:56.894Z,100.00
2022-11-24T08:36:25.099Z,100.00
2022-11-24T08:38:58.669Z,100.00
2022-11-24T08:41:28.781Z,100.00
2022-11-24T08:43:57.051Z,100.00
2022-11-24T08:46:26.487Z,100.00
2022-11-24T08:48:56.736Z,100.00
2022-11-24T08:51:27.719Z,100.00
2022-11-24T08:54:01.199Z,100.00
2022-11-24T08:56:32.234Z,100.00
2022-11-24T08:59:01.303Z,100.00
2022-11-24T09:01:32.901Z,100.00
2022-11-24T09:04:00.823Z,100.00
2022-11-24T09:06:32.034Z,100.00
2022-11-24T09:09:00.466Z,100.00
2022-11-24T09:11:28.297Z,100.00
2022-11-24T09:14:00.705Z,100.00
2022-11-24T09:16:32.509Z,100.00
2022-11-24T09:19:05.509Z,100.00
2022-11-24T09:21:38.089Z,100.00
2022-11-24T09:24:10.346Z,100.00
2022-11-24T09:26:46.090Z,100.00
2022-11-24T09:29:15.792Z,100.00
2022-11-24T09:31:44.121Z,100.00
2022-11-24T09:34:16.284Z,100.00
2022-11-24T09:36:44.548Z,100.00
2022-11-24T09:39:12.829Z,100.00
2022-11-24T09:41:55.960Z,100.00
2022-11-24T09:45:00.297Z,100.00
2022-11-24T09:47:56.144Z,100.00
2022-11-24T09:50:32.186Z,100.00
2022-11-24T09:53:18.450Z,100.00
2022-11-24T09:56:04.343Z,100.00
2022-11-24T09:58:54.068Z,100.00
2022-11-24T10:01:31.877Z,100.00
2022-11-24T10:04:06.302Z,100.00
2022-11-24T10:06:48.994Z,100.00
2022-11-24T10:09:36.706Z,100.00
2022-11-24T10:12:10.813Z,100.00
2022-11-24T10:15:14.800Z,100.00
2022-11-24T10:18:05.157Z,100.00
2022-11-24T10:20:56.137Z,100.00
2022-11-24T10:23:46.862Z,100.00
2022-11-24T10:26:48.112Z,100.00
2022-11-24T10:29:42.144Z,100.00
2022-11-24T10:32:43.202Z,100.00
2022-11-24T10:35:23.936Z,100.00
2022-11-24T10:38:00.728Z,100.00
2022-11-24T10:43:29.735Z,99.16
2022-11-24T10:46:16.386Z,99.20
2022-11-24T10:49:07.198Z,98.52
2022-11-24T10:51:46.587Z,98.71
2022-11-24T10:54:22.498Z,99.04
2022-11-24T10:56:54.868Z,98.49
2022-11-24T10:59:31.345Z,98.64
2022-11-24T11:02:02.915Z,98.50
2022-11-24T11:04:35.204Z,98.07
2022-11-24T11:07:11.828Z,98.42
2022-11-24T11:09:41.080Z,98.30
2022-11-24T11:12:43.489Z,98.42
2022-11-24T11:15:35.097Z,98.12
2022-11-24T11:18:08.748Z,98.29
2022-11-24T11:20:38.575Z,98.19
2022-11-24T11:23:39.713Z,97.87
2022-11-24T11:26:58.606Z,96.77
2022-11-24T11:35:14.539Z,98.03
2022-11-24T11:37:45.658Z,97.93
2022-11-24T11:40:24.203Z,98.45
2022-11-24T11:43:06.863Z,98.98
2022-11-24T11:45:38.518Z,100.00
2022-11-24T11:48:18.493Z,100.00
2022-11-24T11:54:18.139Z,100.00
2022-11-24T11:56:52.257Z,100.00
2022-11-24T11:59:40.089Z,100.00
2022-11-24T12:02:23.812Z,100.00
2022-11-24T12:04:59.493Z,100.00
2022-11-24T12:07:47.412Z,100.00
2022-11-24T12:10:25.251Z,100.00
2022-11-24T12:13:19.513Z,100.00
2022-11-24T12:15:50.290Z,100.00
2022-11-24T12:18:55.912Z,100.00
2022-11-24T12:21:26.462Z,100.00
2022-11-24T12:24:18.999Z,100.00
2022-11-24T12:26:53.686Z,100.00
2022-11-24T12:29:33.009Z,100.00
2022-11-24T12:32:47.918Z,100.00
2022-11-24T12:35:37.708Z,100.00
2022-11-24T12:38:28.270Z,100.00
2022-11-24T12:41:33.248Z,100.00
2022-11-24T12:43:53.306Z,100.00
2022-11-24T12:46:45.355Z,100.00
2022-11-24T12:49:47.455Z,100.00
2022-11-24T12:52:18.366Z,100.00
2022-11-24T12:54:46.693Z,100.00
2022-11-24T12:57:34.789Z,100.00
2022-11-24T13:00:17.205Z,100.00
2022-11-24T13:02:56.615Z,100.00
2022-11-24T13:05:23.567Z,100.00
2022-11-24T13:08:01.074Z,100.00
2022-11-24T13:13:30.256Z,100.00
2022-11-24T13:16:35.153Z,100.00
2022-11-24T13:19:02.853Z,100.00
2022-11-24T13:21:45.990Z,100.00
2022-11-24T13:24:19.202Z,100.00
2022-11-24T13:26:49.101Z,100.00
2022-11-24T13:29:34.464Z,100.00
2022-11-24T13:32:29.232Z,100.00
2022-11-24T13:35:13.711Z,100.00
2022-11-24T13:37:42.077Z,100.00
2022-11-24T13:40:12.179Z,100.00
2022-11-24T13:42:54.425Z,100.00
2022-11-24T13:45:39.858Z,100.00
2022-11-24T13:48:22.475Z,100.00
2022-11-24T13:50:50.071Z,100.00
2022-11-24T13:53:32.176Z,100.00
2022-11-24T13:56:14.307Z,100.00
2022-11-24T13:58:46.534Z,100.00
2022-11-24T14:01:16.487Z,100.00
2022-11-24T14:04:33.648Z,100.00
2022-11-24T14:07:08.699Z,100.00
2022-11-24T14:09:39.016Z,100.00
2022-11-24T14:12:16.898Z,100.00
2022-11-24T14:15:13.925Z,100.00
2022-11-24T14:17:43.158Z,100.00
2022-11-24T14:20:29.674Z,100.00
2022-11-24T14:22:58.443Z,100.00
2022-11-24T14:25:32.566Z,100.00
2022-11-24T14:28:01.135Z,100.00
2022-11-24T14:30:28.835Z,100.00
2022-11-24T14:33:00.487Z,100.00
2022-11-24T14:35:44.445Z,100.00
2022-11-24T14:38:13.180Z,100.00
2022-11-24T14:40:53.473Z,100.00
2022-11-24T14:43:27.100Z,100.00
2022-11-24T14:46:00.387Z,100.00
2022-11-24T14:48:33.747Z,100.00
2022-11-24T14:51:18.759Z,100.00
2022-11-24T14:53:50.322Z,100.00
2022-11-24T14:56:27.950Z,100.00
2022-11-24T14:58:59.028Z,100.00
2022-11-24T15:01:33.298Z,100.00
2022-11-24T15:04:39.005Z,100.00
2022-11-24T15:07:31.928Z,100.00
2022-11-24T15:10:02.243Z,100.00
2022-11-24T15:12:31.129Z,100.00
2022-11-24T15:15:03.425Z,100.00
2022-11-24T15:17:31.320Z,100.00
2022-11-24T15:20:03.783Z,100.00
2022-11-24T15:22:40.700Z,100.00
2022-11-24T15:25:26.448Z,100.00
2022-11-24T15:27:53.694Z,100.00
2022-11-24T15:30:21.418Z,100.00
2022-11-24T15:32:59.755Z,100.00
2022-11-24T15:35:33.929Z,100.00
2022-11-24T15:38:01.465Z,100.00
2022-11-24T15:40:28.880Z,100.00
2022-11-24T15:43:00.780Z,100.00
2022-11-24T15:45:34.803Z,100.00
2022-11-24T15:48:02.112Z,100.00
2022-11-24T15:50:29.831Z,100.00
2022-11-24T15:52:58.037Z,100.00
2022-11-24T15:55:25.481Z,100.00
2022-11-24T15:57:53.191Z,100.00
2022-11-24T16:00:23.668Z,100.00
2022-11-24T16:02:51.427Z,100.00
2022-11-24T16:05:19.118Z,100.00
2022-11-24T16:07:46.492Z,100.00
2022-11-24T16:10:36.354Z,100.00
2022-11-24T16:13:06.624Z,100.00
2022-11-24T16:15:34.512Z,100.00
2022-11-24T16:18:08.498Z,100.00
2022-11-24T16:20:38.577Z,100.00
2022-11-24T16:23:08.095Z,100.00
2022-11-24T16:25:38.568Z,100.00
2022-11-24T16:28:08.886Z,100.00
2022-11-24T16:30:39.828Z,100.00
2022-11-24T16:33:12.700Z,100.00
2022-11-24T16:35:42.875Z,100.00
2022-11-24T16:38:23.031Z,100.00
2022-11-24T16:40:57.053Z,100.00
2022-11-24T16:43:27.583Z,100.00
2022-11-24T16:46:20.471Z,100.00
2022-11-24T16:48:50.134Z,100.00
2022-11-24T16:51:18.991Z,100.00
2022-11-24T16:53:47.074Z,100.00
2022-11-24T16:56:16.706Z,100.00
2022-11-24T16:58:44.442Z,100.00
2022-11-24T17:01:13.641Z,100.00
2022-11-24T17:03:41.299Z,100.00
2022-11-24T17:06:13.432Z,100.00
2022-11-24T17:08:41.563Z,100.00
2022-11-24T17:11:20.337Z,100.00
2022-11-24T17:13:49.332Z,100.00
2022-11-24T17:16:21.718Z,100.00
2022-11-24T17:18:56.938Z,100.00
2022-11-24T17:21:28.065Z,100.00
2022-11-24T17:23:58.870Z,100.00
2022-11-24T17:26:28.086Z,100.00
2022-11-24T17:28:56.228Z,100.00
2022-11-24T17:31:27.660Z,100.00
2022-11-24T17:33:57.029Z,100.00
2022-11-24T17:36:25.477Z,100.00
2022-11-24T17:38:53.483Z,100.00
2022-11-24T17:41:22.168Z,100.00
2022-11-24T17:43:55.899Z,100.00
2022-11-24T17:46:24.779Z,100.00
2022-11-24T17:48:53.005Z,100.00
2022-11-24T17:51:23.020Z,100.00
2022-11-24T17:53:52.491Z,100.00
2022-11-24T17:56:23.978Z,100.00
2022-11-24T17:58:59.315Z,100.00
2022-11-24T18:01:30.339Z,100.00
2022-11-24T18:03:59.306Z,100.00
2022-11-24T18:06:29.058Z,100.00
2022-11-24T18:08:58.272Z,100.00
2022-11-24T18:11:31.531Z,100.00
2022-11-24T18:14:03.043Z,100.00
2022-11-24T18:16:35.380Z,100.00
2022-11-24T18:19:10.161Z,100.00
2022-11-24T18:21:42.583Z,100.00
2022-11-24T18:24:12.415Z,100.00
2022-11-24T18:26:42.213Z,100.00
2022-11-24T18:29:11.145Z,100.00
2022-11-24T18:31:40.008Z,100.00
2022-11-24T18:34:07.928Z,100.00
2022-11-24T18:36:36.666Z,100.00
2022-11-24T18:39:09.994Z,100.00
2022-11-24T18:41:38.664Z,100.00
2022-11-24T18:44:08.769Z,100.00
2022-11-24T18:46:37.575Z,100.00
2022-11-24T18:49:06.572Z,100.00
2022-11-24T18:51:34.189Z,100.00
2022-11-24T18:54:03.624Z,100.00
2022-11-24T18:56:31.827Z,100.00
2022-11-24T18:59:00.242Z,100.00
2022-11-24T19:01:29.297Z,100.00
2022-11-24T19:03:59.313Z,100.00
2022-11-24T19:06:35.590Z,100.00
2022-11-24T19:09:09.628Z,100.00
2022-11-24T19:11:39.185Z,100.00
